createdAt,value
2018-08-10T00:00:07.117Z,46.20
2018-08-10T00:02:35.543Z,46.10
2018-08-10T00:05:04.428Z,45.40
2018-08-10T00:07:32.499Z,45.50
2018-08-10T00:10:00.823Z,45.70
2018-08-10T00:12:29.050Z,45.70
2018-08-10T00:14:57.345Z,45.60
2018-08-10T00:17:25.501Z,45.40
2018-08-10T00:19:53.683Z,45.30
2018-08-10T00:22:21.870Z,45.30
2018-08-10T00:24:50.013Z,45.10
2018-08-10T00:27:18.199Z,45.20
2018-08-10T00:29:46.412Z,45.00
2018-08-10T00:32:14.581Z,44.60
2018-08-10T00:34:42.652Z,44.80
2018-08-10T00:37:10.747Z,44.10
2018-08-10T00:39:38.952Z,44.20
2018-08-10T00:42:07.072Z,44.30
2018-08-10T00:44:35.201Z,43.40
2018-08-10T00:47:03.308Z,43.40
2018-08-10T00:49:31.545Z,43.80
2018-08-10T00:51:59.627Z,43.10
2018-08-10T00:54:27.738Z,44.00
2018-08-10T00:56:55.879Z,43.40
2018-08-10T00:59:24.038Z,43.60
2018-08-10T01:01:52.134Z,43.20
2018-08-10T01:04:20.279Z,42.70
2018-08-10T01:06:48.430Z,43.00
2018-08-10T01:09:16.732Z,43.20
2018-08-10T01:11:45.052Z,42.60
2018-08-10T01:14:13.133Z,42.60
2018-08-10T01:16:41.313Z,42.80
2018-08-10T01:19:09.560Z,42.20
2018-08-10T01:21:37.628Z,42.60
2018-08-10T01:24:05.782Z,42.40
2018-08-10T01:26:33.882Z,42.50
2018-08-10T01:29:02.044Z,42.40
2018-08-10T01:31:30.145Z,42.30
2018-08-10T01:33:58.328Z,42.40
2018-08-10T01:36:26.425Z,42.00
2018-08-10T01:38:54.564Z,41.80
2018-08-10T01:41:22.704Z,41.90
2018-08-10T01:43:50.880Z,42.00
2018-08-10T01:46:19.099Z,42.00
2018-08-10T01:48:47.241Z,41.90
2018-08-10T01:51:15.312Z,41.60
2018-08-10T01:53:43.377Z,41.30
2018-08-10T01:56:11.417Z,41.70
2018-08-10T01:58:39.519Z,41.70
2018-08-10T02:01:07.587Z,42.30
2018-08-10T02:03:35.673Z,41.10
2018-08-10T02:06:03.732Z,41.30
2018-08-10T02:08:31.801Z,41.40
2018-08-10T02:10:59.864Z,41.40
2018-08-10T02:13:27.920Z,41.00
2018-08-10T02:15:55.991Z,41.40
2018-08-10T02:18:24.083Z,41.30
2018-08-10T02:20:52.209Z,41.40
2018-08-10T02:23:20.307Z,40.90
2018-08-10T02:25:48.482Z,41.30
2018-08-10T02:28:16.585Z,41.30
2018-08-10T02:30:44.682Z,41.30
2018-08-10T02:33:12.796Z,40.80
2018-08-10T02:35:40.884Z,40.80
2018-08-10T02:38:08.948Z,40.90
2018-08-10T02:40:37.016Z,40.80
2018-08-10T02:43:05.127Z,41.00
2018-08-10T02:45:33.283Z,41.00
2018-08-10T02:48:01.442Z,41.00
2018-08-10T02:50:29.506Z,40.70
2018-08-10T02:52:57.573Z,40.70
2018-08-10T02:55:25.659Z,40.80
2018-08-10T02:57:53.744Z,40.60
2018-08-10T03:00:21.870Z,40.50
2018-08-10T03:02:50.045Z,40.80
2018-08-10T03:05:18.179Z,40.70
2018-08-10T03:07:46.293Z,40.30
2018-08-10T03:10:14.552Z,40.90
2018-08-10T03:12:42.648Z,40.80
2018-08-10T03:15:12.183Z,40.70
2018-08-10T03:17:40.393Z,40.80
2018-08-10T03:20:08.761Z,40.70
2018-08-10T03:22:36.838Z,41.60
2018-08-10T03:25:05.345Z,41.00
2018-08-10T03:27:33.446Z,40.90
2018-08-10T03:30:01.540Z,40.80
2018-08-10T03:32:29.620Z,41.00
2018-08-10T03:34:57.692Z,40.70
2018-08-10T03:37:25.775Z,40.60
2018-08-10T03:39:53.869Z,40.70
2018-08-10T03:42:22.017Z,40.80
2018-08-10T03:44:50.193Z,40.90
2018-08-10T03:47:18.372Z,40.70
2018-08-10T03:49:46.534Z,40.70
2018-08-10T03:52:14.618Z,40.70
2018-08-10T03:54:42.749Z,40.70
2018-08-10T03:57:10.823Z,40.50
2018-08-10T03:59:38.929Z,40.60
2018-08-10T04:02:06.988Z,40.60
2018-08-10T04:04:35.088Z,40.90
2018-08-10T04:07:03.172Z,40.80
2018-08-10T04:09:31.264Z,40.80
2018-08-10T04:11:59.337Z,40.70
2018-08-10T04:14:27.440Z,40.90
2018-08-10T04:16:55.539Z,40.80
2018-08-10T04:19:23.628Z,41.00
2018-08-10T04:21:51.788Z,40.80
2018-08-10T04:24:19.944Z,40.90
2018-08-10T04:26:48.078Z,40.90
2018-08-10T04:29:16.424Z,40.80
2018-08-10T04:31:44.500Z,40.90
2018-08-10T04:34:12.568Z,40.50
2018-08-10T04:36:40.804Z,40.90
2018-08-10T04:39:10.934Z,40.90
2018-08-10T04:41:39.024Z,40.50
2018-08-10T04:44:07.140Z,40.50
2018-08-10T04:46:35.212Z,40.60
2018-08-10T04:49:03.298Z,40.40
2018-08-10T04:51:31.489Z,41.10
2018-08-10T04:53:59.809Z,40.10
2018-08-10T04:56:27.860Z,40.50
2018-08-10T04:58:55.945Z,40.10
2018-08-10T05:01:24.000Z,40.10
2018-08-10T05:03:52.140Z,40.00
2018-08-10T05:06:20.339Z,39.80
2018-08-10T05:08:48.504Z,39.50
2018-08-10T05:11:16.591Z,39.50
2018-08-10T05:13:44.864Z,39.70
2018-08-10T05:16:13.017Z,39.60
2018-08-10T05:18:41.316Z,39.40
2018-08-10T05:21:09.384Z,39.50
2018-08-10T05:23:37.463Z,39.30
2018-08-10T05:26:05.752Z,39.30
2018-08-10T05:28:33.873Z,39.00
2018-08-10T05:31:01.930Z,38.90
2018-08-10T05:33:30.718Z,39.00
2018-08-10T05:35:58.784Z,38.60
2018-08-10T05:38:26.912Z,38.50
2018-08-10T05:40:55.020Z,38.70
2018-08-10T05:43:23.144Z,38.80
2018-08-10T05:45:51.308Z,38.70
2018-08-10T05:48:19.451Z,38.80
2018-08-10T05:50:47.620Z,38.40
2018-08-10T05:53:15.739Z,38.30
2018-08-10T05:55:43.856Z,38.40
2018-08-10T05:58:11.924Z,38.50
2018-08-10T06:00:40.077Z,38.50
2018-08-10T06:03:08.075Z,38.50
2018-08-10T06:05:36.200Z,38.60
2018-08-10T06:08:04.313Z,38.10
2018-08-10T06:10:32.389Z,38.30
2018-08-10T06:13:00.530Z,38.30
2018-08-10T06:15:28.695Z,38.10
2018-08-10T06:17:56.727Z,38.30
2018-08-10T06:20:24.824Z,38.60
2018-08-10T06:22:52.970Z,38.20
2018-08-10T06:25:21.125Z,38.50
2018-08-10T06:27:49.339Z,38.40
2018-08-10T06:30:17.484Z,38.70
2018-08-10T06:32:45.610Z,38.40
2018-08-10T06:35:13.693Z,38.60
2018-08-10T06:37:41.776Z,38.50
2018-08-10T06:40:09.848Z,38.60
2018-08-10T06:42:37.937Z,38.70
2018-08-10T06:45:06.488Z,38.60
2018-08-10T06:47:34.444Z,38.30
2018-08-10T06:50:02.531Z,38.50
2018-08-10T06:52:30.589Z,38.50
2018-08-10T06:54:58.675Z,38.10
2018-08-10T06:57:26.776Z,38.40
2018-08-10T06:59:54.989Z,38.10
2018-08-10T07:02:23.336Z,38.00
2018-08-10T07:04:51.599Z,38.20
2018-08-10T07:07:19.833Z,38.10
2018-08-10T07:09:48.049Z,37.90
2018-08-10T07:12:16.215Z,38.00
2018-08-10T07:14:44.582Z,38.20
2018-08-10T07:17:12.637Z,38.20
2018-08-10T07:19:40.732Z,38.00
2018-08-10T07:22:08.820Z,38.00
2018-08-10T07:24:37.001Z,38.10
2018-08-10T07:27:05.210Z,37.90
2018-08-10T07:29:33.316Z,37.90
2018-08-10T07:32:01.456Z,37.90
2018-08-10T07:34:29.532Z,37.80
2018-08-10T07:36:57.604Z,37.70
2018-08-10T07:39:25.744Z,37.50
2018-08-10T07:41:53.887Z,37.20
2018-08-10T07:44:22.127Z,37.20
2018-08-10T07:46:50.252Z,37.20
2018-08-10T07:49:18.401Z,37.30
2018-08-10T07:51:46.707Z,37.00
2018-08-10T07:54:14.836Z,37.40
2018-08-10T07:56:42.918Z,36.50
2018-08-10T07:59:11.105Z,37.00
2018-08-10T08:01:39.268Z,36.90
2018-08-10T08:04:08.087Z,36.90
2018-08-10T08:06:36.369Z,36.70
2018-08-10T08:09:07.271Z,36.80
2018-08-10T08:11:35.452Z,36.80
2018-08-10T08:14:03.913Z,36.60
2018-08-10T08:16:32.064Z,36.50
2018-08-10T08:19:00.117Z,36.30
2018-08-10T08:21:28.217Z,36.00
2018-08-10T08:23:56.373Z,36.50
2018-08-10T08:26:24.472Z,36.30
2018-08-10T08:28:52.600Z,36.20
2018-08-10T08:31:20.748Z,36.30
2018-08-10T08:34:00.405Z,36.10
2018-08-10T08:36:28.488Z,35.60
2018-08-10T08:41:06.898Z,35.50
2018-08-10T08:45:53.491Z,36.00
2018-08-10T08:48:21.913Z,35.70
2018-08-10T08:50:51.576Z,35.20
2018-08-10T08:53:19.728Z,35.80
2018-08-10T08:55:49.593Z,35.70
2018-08-10T08:58:17.860Z,35.60
2018-08-10T09:00:46.190Z,35.30
2018-08-10T09:03:26.623Z,35.40
2018-08-10T09:05:55.223Z,35.40
2018-08-10T09:08:23.384Z,35.10
2018-08-10T09:10:52.571Z,35.20
2018-08-10T09:13:20.718Z,35.00
2018-08-10T09:15:48.973Z,35.00
2018-08-10T09:18:17.165Z,34.60
2018-08-10T09:20:45.272Z,34.50
2018-08-10T09:23:13.425Z,34.20
2018-08-10T09:25:41.512Z,34.20
2018-08-10T09:28:09.643Z,34.40
2018-08-10T09:30:37.714Z,33.70
2018-08-10T09:33:06.034Z,33.90
2018-08-10T09:35:34.139Z,34.00
2018-08-10T09:38:02.325Z,34.20
2018-08-10T09:40:30.416Z,34.20
2018-08-10T09:42:58.517Z,33.70
2018-08-10T09:45:26.711Z,34.10
2018-08-10T09:47:54.848Z,33.90
2018-08-10T09:50:29.813Z,33.50
2018-08-10T09:53:00.704Z,33.80
2018-08-10T09:55:44.389Z,33.70
2018-08-10T09:58:16.637Z,33.60
2018-08-10T10:00:50.322Z,34.00
2018-08-10T10:03:19.803Z,33.90
2018-08-10T10:05:48.851Z,33.80
2018-08-10T10:08:17.514Z,33.60
2018-08-10T10:10:45.678Z,32.90
2018-08-10T10:13:13.750Z,33.00
2018-08-10T10:15:42.283Z,32.80
2018-08-10T10:18:11.560Z,32.90
2018-08-10T10:20:39.681Z,33.20
2018-08-10T10:23:07.912Z,33.10
2018-08-10T10:25:36.242Z,33.10
2018-08-10T10:28:04.344Z,33.00
2018-08-10T10:30:32.457Z,32.90
2018-08-10T10:33:00.579Z,33.00
2018-08-10T10:35:28.805Z,32.70
2018-08-10T10:37:56.924Z,32.90
2018-08-10T10:40:25.046Z,32.90
2018-08-10T10:42:53.280Z,32.20
2018-08-10T10:45:21.363Z,32.70
2018-08-10T10:47:49.576Z,32.30
2018-08-10T10:50:18.517Z,32.00
2018-08-10T10:52:46.723Z,32.40
2018-08-10T10:55:15.008Z,32.10
2018-08-10T10:57:43.662Z,32.50
2018-08-10T11:00:14.892Z,32.50
2018-08-10T11:02:42.964Z,32.60
2018-08-10T11:05:11.037Z,31.90
2018-08-10T11:07:39.203Z,32.20
2018-08-10T11:10:08.805Z,32.30
2018-08-10T11:12:37.405Z,32.30
2018-08-10T11:15:05.825Z,32.50
2018-08-10T11:17:34.113Z,32.20
2018-08-10T11:20:02.330Z,32.30
2018-08-10T11:22:30.377Z,32.40
2018-08-10T11:24:58.568Z,32.00
2018-08-10T11:27:26.655Z,32.50
2018-08-10T11:29:54.725Z,32.30
2018-08-10T11:32:22.842Z,32.10
2018-08-10T11:34:51.047Z,32.30
2018-08-10T11:37:19.228Z,32.10
2018-08-10T11:39:47.400Z,32.20
2018-08-10T11:42:15.576Z,31.60
2018-08-10T11:44:43.752Z,31.80
2018-08-10T11:47:11.840Z,31.60
2018-08-10T11:49:39.993Z,32.00
2018-08-10T11:52:08.185Z,31.50
2018-08-10T11:54:36.247Z,31.20
2018-08-10T11:57:04.401Z,31.50
2018-08-10T12:00:49.724Z,30.80
2018-08-10T12:03:17.908Z,32.20
2018-08-10T12:05:46.076Z,31.30
2018-08-10T12:08:14.097Z,31.20
2018-08-10T12:10:42.219Z,30.80
2018-08-10T12:13:10.296Z,31.30
2018-08-10T12:15:38.385Z,31.50
2018-08-10T12:18:06.536Z,31.40
2018-08-10T12:20:34.608Z,31.20
2018-08-10T12:23:02.707Z,31.20
2018-08-10T12:25:30.780Z,30.60
2018-08-10T12:27:58.872Z,30.60
2018-08-10T12:30:27.049Z,31.20
2018-08-10T12:32:55.200Z,31.30
2018-08-10T12:35:23.358Z,31.00
2018-08-10T12:37:51.453Z,31.00
2018-08-10T12:40:19.591Z,30.90
2018-08-10T12:42:47.755Z,30.90
2018-08-10T12:45:15.888Z,30.50
2018-08-10T12:47:44.132Z,30.70
2018-08-10T12:50:12.081Z,30.90
2018-08-10T12:52:40.493Z,31.00
2018-08-10T12:55:08.742Z,31.10
2018-08-10T12:57:36.932Z,31.20
2018-08-10T13:00:07.400Z,31.50
2018-08-10T13:02:35.622Z,31.30
2018-08-10T13:05:03.768Z,31.40
2018-08-10T13:07:31.933Z,31.30
2018-08-10T13:09:59.973Z,31.40
2018-08-10T13:12:28.208Z,30.00
2018-08-10T13:14:56.301Z,30.70
2018-08-10T13:17:24.375Z,29.80
2018-08-10T13:19:52.468Z,29.60
2018-08-10T13:22:20.624Z,29.30
2018-08-10T13:24:48.791Z,29.20
2018-08-10T13:27:17.041Z,29.00
2018-08-10T13:29:45.748Z,29.10
2018-08-10T13:32:13.865Z,29.20
2018-08-10T13:34:42.076Z,28.80
2018-08-10T13:37:10.164Z,29.40
2018-08-10T13:39:38.248Z,29.10
2018-08-10T13:42:06.339Z,29.00
2018-08-10T13:44:34.521Z,29.00
2018-08-10T13:47:02.570Z,29.00
2018-08-10T13:49:30.793Z,28.90
2018-08-10T13:51:58.860Z,28.50
2018-08-10T13:54:27.096Z,28.70
2018-08-10T13:56:55.152Z,28.60
2018-08-10T13:59:23.256Z,29.10
2018-08-10T14:01:51.409Z,28.30
2018-08-10T14:04:19.741Z,28.50
2018-08-10T14:06:48.100Z,28.40
2018-08-10T14:09:16.220Z,28.80
2018-08-10T14:11:44.420Z,28.20
2018-08-10T14:14:12.482Z,28.30
2018-08-10T14:16:40.535Z,28.40
2018-08-10T14:19:08.592Z,28.90
2018-08-10T14:21:36.704Z,28.40
2018-08-10T14:24:04.973Z,28.70
2018-08-10T14:26:33.019Z,28.80
2018-08-10T14:29:01.108Z,29.00
2018-08-10T14:31:29.366Z,29.30
2018-08-10T14:33:57.465Z,29.50
2018-08-10T14:36:25.604Z,29.60
2018-08-10T14:38:53.844Z,29.40
2018-08-10T14:41:22.268Z,29.30
2018-08-10T14:43:51.422Z,29.30
2018-08-10T14:46:19.568Z,29.10
2018-08-10T14:48:47.721Z,29.00
2018-08-10T14:51:15.943Z,28.90
2018-08-10T14:53:44.227Z,28.90
2018-08-10T14:56:12.257Z,28.90
2018-08-10T14:58:40.353Z,28.80
2018-08-10T15:01:08.408Z,29.00
2018-08-10T15:03:36.507Z,29.00
2018-08-10T15:06:04.684Z,29.20
2018-08-10T15:08:32.769Z,29.30
2018-08-10T15:11:00.875Z,29.40
2018-08-10T15:13:29.000Z,29.50
2018-08-10T15:15:57.109Z,29.40
2018-08-10T15:18:25.234Z,29.50
2018-08-10T15:20:53.459Z,29.70
2018-08-10T15:23:21.576Z,29.30
2018-08-10T15:25:49.717Z,29.30
2018-08-10T15:28:18.052Z,29.30
2018-08-10T15:30:46.247Z,29.00
2018-08-10T15:33:14.324Z,28.80
2018-08-10T15:35:42.400Z,29.10
2018-08-10T15:38:10.509Z,29.00
2018-08-10T15:40:38.572Z,29.20
2018-08-10T15:43:06.661Z,29.30
2018-08-10T15:45:34.816Z,29.40
2018-08-10T15:48:02.894Z,30.20
2018-08-10T15:50:31.085Z,30.60
2018-08-10T15:52:59.128Z,30.90
2018-08-10T15:55:27.204Z,31.00
2018-08-10T15:57:55.754Z,31.00
2018-08-10T16:00:24.909Z,31.00
2018-08-10T16:02:53.066Z,31.30
2018-08-10T16:05:21.257Z,31.70
2018-08-10T16:07:49.367Z,31.50
2018-08-10T16:10:17.604Z,31.70
2018-08-10T16:12:45.796Z,31.90
2018-08-10T16:15:15.179Z,31.80
2018-08-10T16:17:43.324Z,31.80
2018-08-10T16:20:13.204Z,31.90
2018-08-10T16:22:41.324Z,32.00
2018-08-10T16:25:10.751Z,32.20
2018-08-10T16:27:39.176Z,32.40
2018-08-10T16:30:09.076Z,32.40
2018-08-10T16:32:37.469Z,31.80
2018-08-10T16:35:06.647Z,32.30
2018-08-10T16:37:34.795Z,32.20
2018-08-10T16:40:03.116Z,32.20
2018-08-10T16:42:31.187Z,32.50
2018-08-10T16:44:59.273Z,32.60
2018-08-10T16:47:27.473Z,32.60
2018-08-10T16:49:55.658Z,33.50
2018-08-10T16:52:23.768Z,32.70
2018-08-10T16:54:51.901Z,32.80
2018-08-10T16:57:20.068Z,32.80
2018-08-10T16:59:48.318Z,32.70
2018-08-10T17:02:16.517Z,32.70
2018-08-10T17:04:44.575Z,32.90
2018-08-10T17:07:12.721Z,33.00
2018-08-10T17:09:40.782Z,33.60
2018-08-10T17:12:09.275Z,33.50
2018-08-10T17:14:37.385Z,33.60
2018-08-10T17:17:05.508Z,33.50
2018-08-10T17:19:33.836Z,33.60
2018-08-10T17:22:01.912Z,33.50
2018-08-10T17:24:30.036Z,33.50
2018-08-10T17:26:58.108Z,33.60
2018-08-10T17:29:26.192Z,33.50
2018-08-10T17:31:54.295Z,33.50
2018-08-10T17:34:22.684Z,33.50
2018-08-10T17:36:50.866Z,33.50
2018-08-10T17:39:19.045Z,33.50
2018-08-10T17:41:47.101Z,33.50
2018-08-10T17:44:15.179Z,33.50
2018-08-10T17:46:43.318Z,33.50
2018-08-10T17:49:11.360Z,33.50
2018-08-10T17:51:39.464Z,33.60
2018-08-10T17:54:07.598Z,33.60
2018-08-10T17:56:35.755Z,33.60
2018-08-10T17:59:03.932Z,33.60
2018-08-10T18:01:31.983Z,33.70
2018-08-10T18:04:00.098Z,33.70
2018-08-10T18:06:28.170Z,33.70
2018-08-10T18:08:56.297Z,33.70
2018-08-10T18:11:24.427Z,33.70
2018-08-10T18:13:52.582Z,33.80
2018-08-10T18:16:20.701Z,33.90
2018-08-10T18:18:48.944Z,33.90
2018-08-10T18:21:17.185Z,33.80
2018-08-10T18:23:45.252Z,33.90
2018-08-10T18:26:13.344Z,34.00
2018-08-10T18:28:41.412Z,34.00
2018-08-10T18:31:09.537Z,34.00
2018-08-10T18:33:37.627Z,34.10
2018-08-10T18:36:05.717Z,34.10
2018-08-10T18:38:33.842Z,34.10
2018-08-10T18:41:02.378Z,34.20
2018-08-10T18:43:30.492Z,34.20
2018-08-10T18:45:58.632Z,35.00
2018-08-10T18:48:26.724Z,34.40
2018-08-10T18:50:54.848Z,34.40
2018-08-10T18:53:22.955Z,34.40
2018-08-10T18:55:51.036Z,34.50
2018-08-10T18:58:19.129Z,34.40
2018-08-10T19:00:47.366Z,34.40
2018-08-10T19:03:15.454Z,34.50
2018-08-10T19:05:43.544Z,34.50
2018-08-10T19:08:11.660Z,34.50
2018-08-10T19:10:39.792Z,35.30
2018-08-10T19:13:07.933Z,34.50
2018-08-10T19:15:36.017Z,34.50
2018-08-10T19:18:05.244Z,34.60
2018-08-10T19:20:33.320Z,34.70
2018-08-10T19:23:01.411Z,34.60
2018-08-10T19:25:29.502Z,34.60
2018-08-10T19:27:57.604Z,34.60
2018-08-10T19:30:25.718Z,34.60
2018-08-10T19:32:53.884Z,34.60
2018-08-10T19:35:21.992Z,34.60
2018-08-10T19:37:50.148Z,34.60
2018-08-10T19:40:19.356Z,34.70
2018-08-10T19:42:47.585Z,34.60
2018-08-10T19:45:16.360Z,34.60
2018-08-10T19:47:44.698Z,34.70
2018-08-10T19:50:14.164Z,34.60
2018-08-10T19:52:42.276Z,34.80
2018-08-10T19:55:11.876Z,34.80
2018-08-10T19:57:40.249Z,34.80
2018-08-10T20:00:10.252Z,34.90
2018-08-10T20:02:38.383Z,34.90
2018-08-10T20:05:06.984Z,34.90
2018-08-10T20:07:35.180Z,34.90
2018-08-10T20:10:03.565Z,34.90
2018-08-10T20:12:31.652Z,35.00
2018-08-10T20:14:59.742Z,35.00
2018-08-10T20:17:27.841Z,35.10
2018-08-10T20:19:55.924Z,35.40
2018-08-10T20:22:24.142Z,35.10
2018-08-10T20:24:52.290Z,35.20
2018-08-10T20:27:20.388Z,35.30
2018-08-10T20:29:48.564Z,35.30
2018-08-10T20:32:16.807Z,35.40
2018-08-10T20:34:44.933Z,35.50
2018-08-10T20:37:13.047Z,35.50
2018-08-10T20:39:41.154Z,35.70
2018-08-10T20:42:09.312Z,35.60
2018-08-10T20:44:37.445Z,35.90
2018-08-10T20:47:05.569Z,35.80
2018-08-10T20:49:33.656Z,35.90
2018-08-10T20:52:01.782Z,36.00
2018-08-10T20:54:29.877Z,35.90
2018-08-10T20:56:58.077Z,36.00
2018-08-10T20:59:26.144Z,36.00
2018-08-10T21:01:54.284Z,36.10
2018-08-10T21:04:22.471Z,36.20
2018-08-10T21:06:50.620Z,36.20
2018-08-10T21:09:18.717Z,35.60
2018-08-10T21:11:46.804Z,36.20
2018-08-10T21:14:14.881Z,36.20
2018-08-10T21:16:42.956Z,37.00
2018-08-10T21:19:11.073Z,36.40
2018-08-10T21:21:39.107Z,36.40
2018-08-10T21:24:07.185Z,36.50
2018-08-10T21:26:35.389Z,36.70
2018-08-10T21:29:03.432Z,36.70
2018-08-10T21:31:31.536Z,36.70
2018-08-10T21:33:59.635Z,36.80
2018-08-10T21:36:27.785Z,37.00
2018-08-10T21:38:55.852Z,36.90
2018-08-10T21:41:24.047Z,37.00
2018-08-10T21:43:52.137Z,37.10
2018-08-10T21:46:20.273Z,37.10
2018-08-10T21:48:48.413Z,37.20
2018-08-10T21:51:16.558Z,37.30
2018-08-10T21:53:44.848Z,37.30
2018-08-10T21:56:12.908Z,37.30
2018-08-10T21:58:40.973Z,37.40
2018-08-10T22:01:09.136Z,37.40
2018-08-10T22:03:37.267Z,37.40
2018-08-10T22:06:05.596Z,37.40
2018-08-10T22:08:33.700Z,37.30
2018-08-10T22:11:01.924Z,37.30
2018-08-10T22:13:35.472Z,37.40
2018-08-10T22:16:09.045Z,37.30
2018-08-10T22:18:42.591Z,37.50
2018-08-10T22:21:10.748Z,37.40
2018-08-10T22:23:38.939Z,37.40
2018-08-10T22:26:07.056Z,37.40
2018-08-10T22:28:35.192Z,37.50
2018-08-10T22:31:03.286Z,37.60
2018-08-10T22:33:31.502Z,37.60
2018-08-10T22:35:59.588Z,37.60
2018-08-10T22:38:27.665Z,37.60
2018-08-10T22:40:55.799Z,37.60
2018-08-10T22:43:23.908Z,37.60
2018-08-10T22:45:52.060Z,37.50
2018-08-10T22:48:20.190Z,37.50
2018-08-10T22:50:48.377Z,37.60
2018-08-10T22:53:16.580Z,37.60
2018-08-10T22:55:44.719Z,37.70
2018-08-10T22:58:12.774Z,37.80
2018-08-10T23:00:41.387Z,37.80
2018-08-10T23:03:09.655Z,37.90
2018-08-10T23:05:37.747Z,37.90
2018-08-10T23:08:05.821Z,37.90
2018-08-10T23:10:33.892Z,38.00
2018-08-10T23:13:01.979Z,38.10
2018-08-10T23:15:30.061Z,38.10
2018-08-10T23:17:58.415Z,38.10
2018-08-10T23:20:26.512Z,38.10
2018-08-10T23:22:54.623Z,38.20
2018-08-10T23:25:23.006Z,38.10
2018-08-10T23:27:51.112Z,38.30
2018-08-10T23:30:19.208Z,38.30
2018-08-10T23:32:47.370Z,38.40
2018-08-10T23:35:15.436Z,38.50
2018-08-10T23:37:43.516Z,38.50
2018-08-10T23:40:15.093Z,38.40
2018-08-10T23:42:44.051Z,38.50
2018-08-10T23:45:13.092Z,38.30
2018-08-10T23:47:42.012Z,38.30
2018-08-10T23:50:12.865Z,38.30
2018-08-10T23:52:41.339Z,38.50
2018-08-10T23:55:10.593Z,38.60
2018-08-10T23:57:39.659Z,38.60
